Time;durP1;ratioP1;P1;durP2;ratioP2;P2;SDS_P1;SDS_P2;PMS_P1;PMS_P2;Temp;Humidity;BMP_temperature;BMP_pressure;BME280_temperature;BME280_humidity;BME280_pressure;Samples;Min_cycle;Max_cycle;Signal;HPM_P1;HPM_P2
2024/03/23 00:00:04;;;;;;;13.32;1.55;;;6.50;99.90;;;;;;5062408;28;20037;-69
2024/03/23 00:02:31;;;;;;;2.60;0.85;;;6.50;99.90;;;;;;5060079;28;20055;-69
2024/03/23 00:04:57;;;;;;;6.53;1.33;;;6.50;99.90;;;;;;5063432;28;20040;-69
2024/03/23 00:07:24;;;;;;;1.98;0.43;;;6.50;99.90;;;;;;5061623;28;20036;-73
2024/03/23 00:09:51;;;;;;;7.05;1.52;;;6.40;99.90;;;;;;5064144;28;20055;-70
2024/03/23 00:12:17;;;;;;;5.95;0.88;;;6.50;99.90;;;;;;5059234;28;20504;-71
2024/03/23 00:14:44;;;;;;;8.75;1.50;;;6.50;99.90;;;;;;5056897;28;20047;-69
2024/03/23 00:17:11;;;;;;;7.32;1.13;;;6.40;99.90;;;;;;5065011;28;20040;-70
2024/03/23 00:19:37;;;;;;;5.13;1.00;;;6.40;99.90;;;;;;5061909;28;20037;-70
2024/03/23 00:22:04;;;;;;;0.82;0.45;;;6.50;99.90;;;;;;5060531;28;20094;-71
2024/03/23 00:24:31;;;;;;;6.22;0.93;;;6.40;99.90;;;;;;5062719;28;20083;-69
2024/03/23 00:26:57;;;;;;;6.75;1.05;;;6.40;99.90;;;;;;5059108;28;20147;-70
2024/03/23 00:29:24;;;;;;;5.32;0.70;;;6.40;99.90;;;;;;5067476;28;20489;-69
2024/03/23 00:31:50;;;;;;;9.23;1.20;;;6.40;99.90;;;;;;5060240;28;20044;-69
2024/03/23 00:34:17;;;;;;;11.43;1.27;;;6.40;99.90;;;;;;5067266;28;20044;-69
2024/03/23 00:36:44;;;;;;;3.05;0.70;;;6.40;99.90;;;;;;5062626;28;20044;-69
2024/03/23 00:39:11;;;;;;;3.97;0.95;;;6.40;99.90;;;;;;5067985;28;20063;-70
2024/03/23 00:41:37;;;;;;;7.68;1.08;;;6.40;99.90;;;;;;5067058;28;20064;-70
2024/03/23 00:44:04;;;;;;;5.05;0.90;;;6.40;99.90;;;;;;5070138;28;20098;-69
2024/03/23 00:46:31;;;;;;;7.88;1.02;;;6.40;99.90;;;;;;5065542;28;20091;-70
2024/03/23 00:48:57;;;;;;;4.63;0.93;;;6.40;99.90;;;;;;5082392;28;20049;-70
2024/03/23 00:51:24;;;;;;;4.32;0.75;;;6.40;99.90;;;;;;5065541;28;20037;-70
2024/03/23 00:53:49;;;;;;;5.63;1.17;;;6.30;99.90;;;;;;5055884;28;20041;-70
2024/03/23 00:56:15;;;;;;;3.92;0.80;;;6.30;99.90;;;;;;5057738;28;20122;-70
2024/03/23 00:58:41;;;;;;;12.70;1.52;;;6.30;99.90;;;;;;5062943;28;20526;-71
2024/03/23 01:01:06;;;;;;;5.93;0.85;;;6.30;99.90;;;;;;5061133;28;20032;-71
2024/03/23 01:03:32;;;;;;;1.77;0.60;;;6.20;99.90;;;;;;5050850;28;20106;-70
2024/03/23 01:06:02;;;;;;;7.22;1.17;;;6.20;99.90;;;;;;5053821;28;20037;-70
2024/03/23 01:08:27;;;;;;;7.65;1.05;;;6.20;99.90;;;;;;5051725;28;20150;-70
2024/03/23 01:11:01;;;;;;;2.80;0.98;;;6.10;99.90;;;;;;5055129;28;20052;-70
2024/03/23 01:13:27;;;;;;;0.40;0.30;;;6.10;99.90;;;;;;5065150;28;20060;-71
2024/03/23 01:15:54;;;;;;;6.20;0.70;;;6.10;99.90;;;;;;5067528;28;20037;-70
2024/03/23 01:18:21;;;;;;;8.23;0.98;;;6.00;99.90;;;;;;5066178;28;20094;-70
2024/03/23 01:20:47;;;;;;;6.38;0.55;;;6.00;99.90;;;;;;5062752;28;20456;-71
2024/03/23 01:23:12;;;;;;;11.73;1.25;;;5.90;99.90;;;;;;5061673;28;20127;-71
2024/03/23 01:25:39;;;;;;;4.90;1.15;;;5.90;99.90;;;;;;5058057;28;20520;-70
2024/03/23 01:28:06;;;;;;;8.15;0.85;;;5.90;99.90;;;;;;5067878;28;20396;-71
2024/03/23 01:30:32;;;;;;;7.35;0.95;;;5.80;99.90;;;;;;5060371;28;20076;-72
2024/03/23 01:32:58;;;;;;;10.48;0.40;;;5.80;99.90;;;;;;5064395;28;20036;-71
2024/03/23 01:35:24;;;;;;;0.43;0.32;;;5.70;99.90;;;;;;5059092;28;20048;-70
2024/03/23 01:37:50;;;;;;;5.63;1.27;;;5.70;99.90;;;;;;5060657;28;20045;-70
2024/03/23 01:40:19;;;;;;;3.17;0.50;;;5.60;99.90;;;;;;5056737;28;20041;-71
2024/03/23 01:43:10;;;;;;;4.25;1.77;;;5.60;99.90;;;;;;5059279;28;20123;-70
2024/03/23 01:45:36;;;;;;;1.67;0.20;;;5.60;99.90;;;;;;5056251;28;20139;-70
2024/03/23 01:48:02;;;;;;;11.95;0.80;;;5.50;99.90;;;;;;5059292;28;20077;-71
2024/03/23 01:50:30;;;;;;;6.13;0.47;;;5.50;99.90;;;;;;5049519;28;20093;-70
2024/03/23 01:52:57;;;;;;;0.28;0.20;;;5.40;99.90;;;;;;5051829;28;20123;-71
2024/03/23 01:55:23;;;;;;;2.85;0.80;;;5.30;99.90;;;;;;5067804;28;20040;-70
2024/03/23 01:57:49;;;;;;;5.20;1.08;;;5.30;99.90;;;;;;5059501;28;20043;-69
2024/03/23 02:00:15;;;;;;;7.13;1.60;;;5.10;99.90;;;;;;5058823;28;20072;-70
2024/03/23 02:02:47;;;;;;;7.85;0.93;;;5.20;99.90;;;;;;5057178;28;20033;-70
2024/03/23 02:05:13;;;;;;;5.03;1.45;;;5.10;99.90;;;;;;5055843;28;20128;-70
2024/03/23 02:07:42;;;;;;;3.80;0.68;;;5.00;99.90;;;;;;5056687;28;20381;-70
2024/03/23 02:10:09;;;;;;;2.15;0.57;;;5.00;99.90;;;;;;5060510;28;20032;-70
2024/03/23 02:12:36;;;;;;;7.68;0.95;;;4.90;99.90;;;;;;5046536;28;20053;-70
2024/03/23 02:15:02;;;;;;;1.33;0.43;;;4.90;99.90;;;;;;5060501;28;20045;-70
2024/03/23 02:17:30;;;;;;;7.53;0.93;;;4.80;99.90;;;;;;5066095;28;20056;-69
2024/03/23 02:19:55;;;;;;;3.25;1.02;;;4.80;99.90;;;;;;5050059;28;20041;-70
2024/03/23 02:22:21;;;;;;;2.75;0.30;;;4.80;99.90;;;;;;5060921;28;20408;-70
2024/03/23 02:24:47;;;;;;;5.35;0.68;;;4.70;99.90;;;;;;5061792;28;20035;-70
2024/03/23 02:27:12;;;;;;;9.50;1.33;;;4.80;99.90;;;;;;5059166;28;20044;-71
2024/03/23 02:29:38;;;;;;;2.85;0.73;;;4.70;99.90;;;;;;5061331;28;20037;-70
2024/03/23 02:32:04;;;;;;;4.28;0.68;;;4.60;99.90;;;;;;5044898;28;20040;-70
2024/03/23 02:34:30;;;;;;;2.42;0.52;;;4.60;99.90;;;;;;5058090;28;20558;-70
2024/03/23 02:36:56;;;;;;;0.95;0.38;;;4.50;99.90;;;;;;5052365;28;20033;-69
2024/03/23 02:39:21;;;;;;;0.28;0.08;;;4.50;99.90;;;;;;5047480;28;20045;-70
2024/03/23 02:41:47;;;;;;;0.63;0.40;;;4.50;99.90;;;;;;5052385;28;20104;-70
2024/03/23 02:44:13;;;;;;;1.55;0.68;;;4.40;99.90;;;;;;5045594;28;20044;-69
2024/03/23 02:46:39;;;;;;;3.35;0.70;;;4.40;99.90;;;;;;5064194;28;20448;-69
2024/03/23 02:49:05;;;;;;;1.00;0.45;;;4.40;99.90;;;;;;5041535;28;20036;-69
2024/03/23 02:51:31;;;;;;;5.97;0.77;;;4.30;99.90;;;;;;5063109;28;20067;-69
2024/03/23 02:53:57;;;;;;;2.20;0.60;;;4.30;99.90;;;;;;5059074;28;20053;-69
2024/03/23 02:56:22;;;;;;;2.28;0.95;;;4.20;99.90;;;;;;5058863;28;20469;-70
2024/03/23 02:58:48;;;;;;;7.05;0.80;;;4.20;99.90;;;;;;5056563;28;20032;-70
2024/03/23 03:01:14;;;;;;;1.58;0.55;;;4.20;99.90;;;;;;5062998;28;20044;-70
2024/03/23 03:03:40;;;;;;;1.80;0.73;;;4.20;99.90;;;;;;5058980;28;20087;-70
2024/03/23 03:06:05;;;;;;;3.53;0.75;;;4.20;99.90;;;;;;5061181;28;20040;-70
2024/03/23 03:08:31;;;;;;;4.18;1.00;;;4.20;99.90;;;;;;5062456;28;20036;-70
2024/03/23 03:10:58;;;;;;;4.13;0.50;;;4.10;99.90;;;;;;5061869;28;20039;-70
2024/03/23 03:13:23;;;;;;;8.55;1.05;;;4.10;99.90;;;;;;5057984;28;20041;-70
2024/03/23 03:15:49;;;;;;;0.85;0.40;;;4.10;99.90;;;;;;5060808;28;20033;-70
2024/03/23 03:18:14;;;;;;;0.30;0.30;;;4.10;99.90;;;;;;5065765;28;20102;-70
2024/03/23 03:20:40;;;;;;;2.35;0.68;;;4.10;99.90;;;;;;5063333;28;20049;-69
2024/03/23 03:23:09;;;;;;;5.68;1.50;;;4.00;99.90;;;;;;5059273;28;20075;-69
2024/03/23 03:25:35;;;;;;;6.88;1.38;;;4.00;99.90;;;;;;5043251;28;20036;-69
2024/03/23 03:28:01;;;;;;;3.28;0.47;;;4.00;99.90;;;;;;5058549;28;20534;-69
2024/03/23 03:30:27;;;;;;;6.95;1.83;;;4.00;99.90;;;;;;5056439;28;20838;-69
2024/03/23 03:32:54;;;;;;;1.58;0.40;;;3.90;99.90;;;;;;5061854;28;20040;-68
2024/03/23 03:35:20;;;;;;;4.75;0.55;;;3.80;99.90;;;;;;5060727;28;20048;-69
2024/03/23 03:37:46;;;;;;;4.50;0.57;;;3.80;99.90;;;;;;5059811;28;20045;-69
2024/03/23 03:40:14;;;;;;;3.40;0.80;;;3.80;99.90;;;;;;5055653;28;20389;-69
2024/03/23 03:42:40;;;;;;;0.90;0.30;;;3.80;99.90;;;;;;5055750;28;20037;-69
2024/03/23 03:45:07;;;;;;;3.05;0.70;;;3.70;99.90;;;;;;5061252;28;20183;-70
2024/03/23 03:47:32;;;;;;;0.43;0.40;;;3.70;99.90;;;;;;5058733;28;20045;-69
2024/03/23 03:49:58;;;;;;;2.65;0.60;;;3.60;99.90;;;;;;5058461;28;20055;-69
2024/03/23 03:52:24;;;;;;;1.90;0.30;;;3.60;99.90;;;;;;5064414;28;20865;-69
2024/03/23 03:54:49;;;;;;;1.58;0.35;;;3.60;99.90;;;;;;5061740;28;20457;-68
2024/03/23 03:57:15;;;;;;;1.08;0.10;;;3.60;99.90;;;;;;5063629;28;20047;-68
2024/03/23 03:59:41;;;;;;;5.90;0.80;;;3.60;99.90;;;;;;5064143;28;20101;-69
2024/03/23 04:02:06;;;;;;;2.90;0.30;;;3.50;99.90;;;;;;5065880;28;20040;-69
2024/03/23 04:04:32;;;;;;;2.38;0.35;;;3.60;99.90;;;;;;5079137;28;20116;-69
2024/03/23 04:07:01;;;;;;;6.80;0.70;;;3.50;99.90;;;;;;5063534;28;20072;-69
2024/03/23 04:09:27;;;;;;;0.95;0.25;;;3.50;99.90;;;;;;5067258;28;20487;-69
2024/03/23 04:11:53;;;;;;;2.47;0.50;;;3.50;99.90;;;;;;5066941;28;20044;-69
2024/03/23 04:14:19;;;;;;;3.90;0.85;;;3.50;99.90;;;;;;5064728;28;20040;-68
2024/03/23 04:16:45;;;;;;;7.88;0.60;;;3.50;99.90;;;;;;5065070;28;20115;-68
2024/03/23 04:19:10;;;;;;;2.40;0.93;;;3.60;99.90;;;;;;5062128;28;20036;-69
2024/03/23 04:21:37;;;;;;;2.97;0.32;;;3.60;99.90;;;;;;5060421;28;20391;-69
2024/03/23 04:24:04;;;;;;;0.43;0.15;;;3.60;99.90;;;;;;5065983;28;20044;-70
2024/03/23 04:26:39;;;;;;;0.80;0.10;;;3.70;99.90;;;;;;5060720;28;20072;-68
2024/03/23 04:29:05;;;;;;;0.63;0.28;;;3.70;99.90;;;;;;5067900;28;20048;-69
2024/03/23 04:31:32;;;;;;;1.40;0.70;;;3.80;99.90;;;;;;5067518;28;20036;-68
2024/03/23 04:33:57;;;;;;;1.15;0.43;;;3.80;99.90;;;;;;5070916;28;20051;-69
2024/03/23 04:36:23;;;;;;;2.58;0.75;;;3.80;99.90;;;;;;5061748;28;20028;-69
2024/03/23 04:38:50;;;;;;;0.60;0.25;;;3.80;99.90;;;;;;5068248;28;20032;-68
2024/03/23 04:41:15;;;;;;;1.23;0.85;;;3.80;99.90;;;;;;5068515;28;20055;-68
2024/03/23 04:43:41;;;;;;;0.95;0.75;;;3.80;99.90;;;;;;5051834;28;20024;-68
2024/03/23 04:46:06;;;;;;;1.70;0.75;;;3.80;99.90;;;;;;5084278;28;20464;-68
2024/03/23 04:48:32;;;;;;;5.28;0.50;;;3.80;99.90;;;;;;5069685;28;20059;-69
2024/03/23 04:50:58;;;;;;;1.35;0.20;;;3.80;99.90;;;;;;5081069;28;20165;-69
2024/03/23 04:53:28;;;;;;;8.25;0.52;;;3.80;99.90;;;;;;5067729;28;20048;-69
2024/03/23 04:55:55;;;;;;;3.65;0.40;;;3.80;99.90;;;;;;5049956;28;20127;-69
2024/03/23 04:58:21;;;;;;;1.23;0.57;;;3.80;99.90;;;;;;5069550;28;20155;-70
2024/03/23 05:00:47;;;;;;;9.95;0.52;;;3.80;99.90;;;;;;5067202;28;20044;-69
2024/03/23 05:03:12;;;;;;;1.40;0.35;;;3.80;99.90;;;;;;5067933;28;20187;-69
2024/03/23 05:05:39;;;;;;;0.88;0.30;;;3.80;99.90;;;;;;5082419;28;20046;-68
2024/03/23 05:08:05;;;;;;;1.38;0.38;;;3.80;99.90;;;;;;5061539;28;20048;-69
2024/03/23 05:10:32;;;;;;;5.50;0.68;;;3.80;99.90;;;;;;5070057;28;20043;-69
2024/03/23 05:12:58;;;;;;;4.07;0.57;;;3.80;99.90;;;;;;5063390;28;20474;-69
2024/03/23 05:15:23;;;;;;;0.25;0.10;;;3.80;99.90;;;;;;5061428;28;20124;-69
2024/03/23 05:17:49;;;;;;;1.85;0.55;;;3.70;99.90;;;;;;5060188;28;20033;-70
2024/03/23 05:20:16;;;;;;;7.75;0.50;;;3.70;99.90;;;;;;5061825;28;20032;-70
2024/03/23 05:22:42;;;;;;;6.45;1.13;;;3.70;99.90;;;;;;5060536;28;20126;-69
2024/03/23 05:25:09;;;;;;;0.00;0.00;;;3.70;99.90;;;;;;5062742;28;20132;-69
2024/03/23 05:27:36;;;;;;;1.08;0.22;;;3.70;99.90;;;;;;5062487;28;20032;-69
2024/03/23 05:30:02;;;;;;;0.70;0.40;;;3.60;99.90;;;;;;5065793;28;20131;-69
2024/03/23 05:32:27;;;;;;;6.45;0.63;;;3.60;99.90;;;;;;5066826;28;20123;-69
2024/03/23 05:34:56;;;;;;;0.88;0.43;;;3.50;99.90;;;;;;5064568;28;20044;-69
2024/03/23 05:37:25;;;;;;;5.72;0.35;;;3.50;99.90;;;;;;5083582;28;20040;-69
2024/03/23 05:39:51;;;;;;;0.40;0.30;;;3.50;99.90;;;;;;5064959;28;20036;-69
2024/03/23 05:42:17;;;;;;;11.38;0.50;;;3.50;99.90;;;;;;5059262;28;20337;-69
2024/03/23 05:44:46;;;;;;;4.57;0.32;;;3.50;99.90;;;;;;5066304;28;20468;-70
2024/03/23 05:47:14;;;;;;;0.55;0.43;;;3.50;99.90;;;;;;5067017;28;20040;-69
2024/03/23 05:49:41;;;;;;;0.70;0.32;;;3.50;99.90;;;;;;5067258;28;20354;-69
2024/03/23 05:52:08;;;;;;;2.15;0.38;;;3.60;99.90;;;;;;5058011;28;20036;-70
2024/03/23 05:54:34;;;;;;;0.47;0.20;;;3.60;99.90;;;;;;5065035;28;20049;-69
2024/03/23 05:57:00;;;;;;;1.98;0.28;;;3.70;99.90;;;;;;5067223;28;20036;-70
2024/03/23 05:59:26;;;;;;;1.95;0.57;;;3.80;99.90;;;;;;5067141;28;20036;-68
2024/03/23 06:01:52;;;;;;;0.77;0.20;;;3.80;99.90;;;;;;5063397;28;20488;-69
2024/03/23 06:04:18;;;;;;;0.22;0.20;;;3.90;99.90;;;;;;5060840;28;20036;-69
2024/03/23 06:06:44;;;;;;;0.88;0.52;;;4.00;99.90;;;;;;5061933;28;20060;-70
2024/03/23 06:09:09;;;;;;;5.85;0.63;;;4.20;99.90;;;;;;5063246;28;20117;-70
2024/03/23 06:11:35;;;;;;;0.93;0.32;;;4.30;99.90;;;;;;5054506;28;20040;-68
2024/03/23 06:14:01;;;;;;;2.00;0.10;;;4.40;99.90;;;;;;5045235;28;20043;-69
2024/03/23 06:16:27;;;;;;;6.93;0.85;;;4.50;99.90;;;;;;5067391;28;20040;-70
2024/03/23 06:18:55;;;;;;;0.20;0.05;;;4.60;99.90;;;;;;5062942;28;20424;-69
2024/03/23 06:21:20;;;;;;;0.80;0.35;;;4.80;99.90;;;;;;5062820;28;20032;-69
2024/03/23 06:23:52;;;;;;;2.90;0.40;;;4.80;99.90;;;;;;5063776;28;20056;-69
2024/03/23 06:26:19;;;;;;;2.83;0.68;;;4.80;99.90;;;;;;5063839;28;20044;-69
2024/03/23 06:28:45;;;;;;;3.50;0.20;;;4.90;99.90;;;;;;5063025;28;20060;-70
2024/03/23 06:31:11;;;;;;;2.13;0.30;;;4.90;99.90;;;;;;5067625;28;20124;-69
2024/03/23 06:33:37;;;;;;;0.75;0.10;;;4.90;99.90;;;;;;5060620;28;20093;-69
2024/03/23 06:36:04;;;;;;;1.30;0.63;;;4.90;99.90;;;;;;5067674;28;20044;-68
2024/03/23 06:38:30;;;;;;;5.05;0.32;;;4.90;99.90;;;;;;5059051;28;20043;-68
2024/03/23 06:40:56;;;;;;;4.07;0.40;;;4.90;99.90;;;;;;5078608;28;20473;-68
2024/03/23 06:43:21;;;;;;;1.20;0.30;;;5.00;99.90;;;;;;5060520;28;20143;-68
2024/03/23 06:45:54;;;;;;;1.13;0.28;;;5.00;99.90;;;;;;5060626;28;20129;-68
2024/03/23 06:48:20;;;;;;;1.23;0.22;;;5.00;99.90;;;;;;5078892;28;20070;-68
2024/03/23 06:50:46;;;;;;;0.90;0.10;;;5.10;99.90;;;;;;5059764;28;20377;-69
2024/03/23 06:53:13;;;;;;;1.08;0.10;;;5.10;99.90;;;;;;5061696;28;20059;-67
2024/03/23 06:55:39;;;;;;;5.28;0.40;;;5.10;99.90;;;;;;5061788;28;20049;-67
2024/03/23 06:58:05;;;;;;;6.78;2.58;;;5.10;99.90;;;;;;5060555;28;20033;-67
2024/03/23 07:00:32;;;;;;;1.05;0.25;;;5.10;99.90;;;;;;5080730;28;20050;-67
2024/03/23 07:02:58;;;;;;;0.00;0.00;;;5.10;99.90;;;;;;5066621;28;20028;-67
2024/03/23 07:05:24;;;;;;;0.13;0.13;;;5.10;99.90;;;;;;5064602;28;20066;-68
2024/03/23 07:07:49;;;;;;;7.03;0.65;;;5.00;99.90;;;;;;5064075;28;20477;-68
2024/03/23 07:10:15;;;;;;;3.03;0.25;;;5.10;99.90;;;;;;5060516;28;20044;-68
2024/03/23 07:12:41;;;;;;;1.17;0.63;;;5.10;99.90;;;;;;5065876;28;20383;-67
2024/03/23 07:15:08;;;;;;;1.30;0.20;;;5.10;99.90;;;;;;5058517;28;20084;-68
2024/03/23 07:17:35;;;;;;;0.10;0.10;;;5.10;99.90;;;;;;5065084;28;20036;-66
2024/03/23 07:20:03;;;;;;;4.25;0.57;;;5.10;99.90;;;;;;5062341;28;20100;-66
2024/03/23 07:22:30;;;;;;;0.45;0.40;;;5.10;99.90;;;;;;5064900;28;20122;-67
2024/03/23 07:24:55;;;;;;;2.80;0.60;;;5.00;99.90;;;;;;5061146;28;20124;-67
2024/03/23 07:27:21;;;;;;;0.00;0.00;;;5.00;99.90;;;;;;5063362;28;20067;-66
2024/03/23 07:29:47;;;;;;;3.80;0.60;;;5.00;99.90;;;;;;5063952;28;20039;-67
2024/03/23 07:32:12;;;;;;;0.10;0.10;;;5.00;99.90;;;;;;5065666;28;20501;-68
2024/03/23 07:34:38;;;;;;;0.10;0.10;;;5.00;99.90;;;;;;5080075;28;20036;-68
2024/03/23 07:37:05;;;;;;;0.85;0.47;;;5.00;99.90;;;;;;5062210;28;20039;-68
2024/03/23 07:39:32;;;;;;;1.45;0.30;;;5.00;99.90;;;;;;5059944;28;20109;-69
2024/03/23 07:41:58;;;;;;;21.17;10.75;;;5.00;99.90;;;;;;5058299;28;20042;-69
2024/03/23 07:44:24;;;;;;;2.45;0.47;;;5.10;99.90;;;;;;5061166;28;20399;-69
2024/03/23 07:46:49;;;;;;;0.90;0.40;;;5.20;99.90;;;;;;5070521;28;20036;-69
2024/03/23 07:49:15;;;;;;;0.15;0.10;;;5.30;99.90;;;;;;5067704;28;20051;-69
2024/03/23 07:51:41;;;;;;;0.82;0.22;;;5.40;99.90;;;;;;5073909;28;20056;-69
2024/03/23 07:54:07;;;;;;;0.70;0.20;;;5.50;99.90;;;;;;5069560;28;20071;-69
2024/03/23 07:56:32;;;;;;;1.40;0.43;;;5.50;99.90;;;;;;5049409;28;20143;-68
2024/03/23 07:58:58;;;;;;;0.10;0.10;;;5.50;99.90;;;;;;5068004;28;20047;-67
2024/03/23 08:01:24;;;;;;;3.65;0.30;;;5.40;99.90;;;;;;5066222;28;20514;-67
2024/03/23 08:03:49;;;;;;;0.47;0.25;;;5.40;99.90;;;;;;5069811;28;20032;-68
2024/03/23 08:06:16;;;;;;;1.80;0.43;;;5.40;99.90;;;;;;5066635;28;20437;-68
2024/03/23 08:08:44;;;;;;;0.00;0.00;;;5.50;99.90;;;;;;5069917;28;20072;-68
2024/03/23 08:11:10;;;;;;;1.95;0.15;;;5.70;99.90;;;;;;5081705;28;20040;-68
2024/03/23 08:13:39;;;;;;;0.10;0.10;;;5.70;99.90;;;;;;5069231;28;20651;-68
2024/03/23 08:16:05;;;;;;;2.63;0.10;;;5.70;99.90;;;;;;5068113;28;20101;-68
2024/03/23 08:18:31;;;;;;;2.30;0.55;;;5.80;99.90;;;;;;5067901;28;20045;-69
2024/03/23 08:21:01;;;;;;;0.85;0.52;;;6.30;99.90;;;;;;5083653;28;20120;-68
2024/03/23 08:23:29;;;;;;;2.10;0.45;;;6.80;99.90;;;;;;5067223;28;20132;-68
2024/03/23 08:25:58;;;;;;;11.82;0.73;;;7.20;99.90;;;;;;5048923;28;20040;-68
2024/03/23 08:28:24;;;;;;;1.13;0.30;;;7.40;99.90;;;;;;5066123;28;20040;-68
2024/03/23 08:30:50;;;;;;;1.55;0.40;;;7.30;99.90;;;;;;5073864;28;20036;-68
2024/03/23 08:33:16;;;;;;;0.70;0.50;;;7.80;99.90;;;;;;5066517;28;20105;-68
2024/03/23 08:35:42;;;;;;;5.68;0.50;;;8.50;99.90;;;;;;5063079;28;20038;-68
2024/03/23 08:38:08;;;;;;;0.90;0.30;;;9.50;99.90;;;;;;5065862;28;20044;-67
2024/03/23 08:40:33;;;;;;;0.93;0.32;;;10.60;99.90;;;;;;5080024;28;20035;-68
2024/03/23 08:42:59;;;;;;;0.10;0.10;;;11.70;99.90;;;;;;5065061;28;20517;-68
2024/03/23 08:45:25;;;;;;;1.25;0.57;;;11.80;99.90;;;;;;5071233;28;20131;-67
2024/03/23 08:47:51;;;;;;;0.40;0.22;;;12.20;99.90;;;;;;5067417;28;20098;-67
2024/03/23 08:50:17;;;;;;;4.53;0.52;;;12.90;99.90;;;;;;5067680;28;20054;-68
2024/03/23 08:52:43;;;;;;;1.02;0.17;;;13.40;99.90;;;;;;5066651;28;20056;-67
2024/03/23 08:55:09;;;;;;;1.17;0.10;;;13.80;99.90;;;;;;5083598;28;20048;-69
2024/03/23 08:57:36;;;;;;;2.28;0.20;;;13.80;99.90;;;;;;5064049;28;20036;-67
2024/03/23 09:00:02;;;;;;;0.10;0.10;;;14.10;99.90;;;;;;5067626;28;20043;-67
2024/03/23 09:02:28;;;;;;;0.00;0.00;;;14.30;99.90;;;;;;5071532;28;20040;-68
2024/03/23 09:04:53;;;;;;;3.63;0.40;;;13.70;99.90;;;;;;5081067;28;20035;-68
2024/03/23 09:07:19;;;;;;;1.00;0.20;;;12.90;99.90;;;;;;5065439;28;20048;-67
2024/03/23 09:09:45;;;;;;;2.47;0.20;;;12.00;99.90;;;;;;5065867;28;20046;-68
2024/03/23 09:12:10;;;;;;;0.10;0.10;;;11.20;99.90;;;;;;5068009;28;20457;-67
2024/03/23 09:14:36;;;;;;;2.10;0.45;;;10.40;99.90;;;;;;5084207;28;20120;-68
2024/03/23 09:17:02;;;;;;;1.40;0.40;;;9.70;99.90;;;;;;5064673;28;20072;-67
2024/03/23 09:19:31;;;;;;;4.20;0.30;;;9.30;99.90;;;;;;5063942;28;20036;-67
2024/03/23 09:21:56;;;;;;;0.95;0.22;;;9.40;99.90;;;;;;5060042;28;20040;-67
2024/03/23 09:24:22;;;;;;;1.55;0.22;;;10.10;99.90;;;;;;5060629;28;20048;-68
2024/03/23 09:26:48;;;;;;;0.65;0.30;;;10.60;99.90;;;;;;5067958;28;20349;-67
2024/03/23 09:29:13;;;;;;;1.77;0.38;;;10.20;99.90;;;;;;5087997;28;20047;-68
2024/03/23 09:31:40;;;;;;;1.88;0.30;;;9.70;99.90;;;;;;5066325;28;20120;-68
2024/03/23 09:34:06;;;;;;;1.42;0.30;;;9.20;99.90;;;;;;5068297;28;20134;-67
2024/03/23 09:36:32;;;;;;;3.40;0.95;;;9.10;99.90;;;;;;5064906;28;21437;-67
2024/03/23 09:38:58;;;;;;;2.40;0.40;;;10.10;99.90;;;;;;5081287;28;20511;-67
2024/03/23 09:41:23;;;;;;;0.88;0.25;;;11.30;99.90;;;;;;5062691;28;20066;-67
2024/03/23 09:43:53;;;;;;;8.00;0.68;;;12.30;99.90;;;;;;5069449;28;20508;-67
2024/03/23 09:46:19;;;;;;;3.72;0.45;;;13.10;99.90;;;;;;5072933;28;20398;-67
2024/03/23 09:48:46;;;;;;;2.55;0.52;;;13.40;99.90;;;;;;5063735;28;20077;-68
2024/03/23 09:51:12;;;;;;;2.85;0.10;;;13.10;99.90;;;;;;5083522;28;20032;-67
2024/03/23 09:53:39;;;;;;;0.63;0.20;;;12.80;99.90;;;;;;5051992;28;20071;-68
2024/03/23 09:56:04;;;;;;;2.95;0.30;;;12.40;99.90;;;;;;5064892;28;20089;-67
2024/03/23 09:58:32;;;;;;;2.15;0.30;;;11.10;99.90;;;;;;5081682;28;20627;-67
2024/03/23 10:00:58;;;;;;;2.08;0.20;;;10.00;99.90;;;;;;5070001;28;20043;-66
2024/03/23 10:03:24;;;;;;;0.43;0.10;;;8.90;99.90;;;;;;5067046;28;20044;-66
2024/03/23 10:06:01;;;;;;;4.72;0.20;;;7.90;99.90;;;;;;5066971;28;20484;-66
2024/03/23 10:08:30;;;;;;;1.08;0.25;;;7.40;99.90;;;;;;5068718;28;20448;-66
2024/03/23 10:10:56;;;;;;;2.28;0.30;;;7.00;99.90;;;;;;5058366;28;20044;-68
2024/03/23 10:13:26;;;;;;;1.10;0.28;;;7.90;99.90;;;;;;5065911;28;20042;-67
2024/03/23 10:15:57;;;;;;;1.02;0.20;;;8.80;99.90;;;;;;5062048;28;20123;-68
2024/03/23 10:18:24;;;;;;;0.22;0.15;;;8.80;99.90;;;;;;5067816;28;20036;-69
2024/03/23 10:21:08;;;;;;;0.00;0.00;;;8.40;99.90;;;;;;5081749;28;20974;-68
2024/03/23 10:23:38;;;;;;;1.20;0.20;;;8.00;99.90;;;;;;5071237;28;20423;-69
2024/03/23 10:26:25;;;;;;;5.53;0.60;;;7.90;99.90;;;;;;5069677;28;20047;-70
2024/03/23 10:29:00;;;;;;;3.55;0.45;;;8.00;99.90;;;;;;5063567;28;20041;-69
2024/03/23 10:31:26;;;;;;;0.40;0.08;;;8.60;99.90;;;;;;5067243;28;20053;-70
2024/03/23 10:33:54;;;;;;;0.00;0.00;;;9.40;99.90;;;;;;5079142;28;20036;-70
2024/03/23 10:36:21;;;;;;;0.00;0.00;;;10.30;99.90;;;;;;5066631;28;20079;-69
2024/03/23 10:38:47;;;;;;;0.22;0.10;;;11.10;99.90;;;;;;5066156;28;20032;-70
2024/03/23 10:41:13;;;;;;;0.10;0.05;;;11.70;99.90;;;;;;5081697;28;20047;-70
2024/03/23 10:43:39;;;;;;;1.65;0.15;;;12.10;99.90;;;;;;5060880;28;20044;-70
2024/03/23 10:46:05;;;;;;;4.03;0.38;;;12.50;99.90;;;;;;5067275;28;20035;-70
2024/03/23 10:48:32;;;;;;;3.17;0.65;;;12.80;99.90;;;;;;5064944;28;20546;-70
2024/03/23 10:50:58;;;;;;;1.58;0.60;;;13.10;99.90;;;;;;5065809;28;20048;-71
2024/03/23 10:53:26;;;;;;;1.38;0.30;;;12.70;99.90;;;;;;5067896;28;20055;-70
2024/03/23 10:55:55;;;;;;;0.65;0.10;;;11.80;99.90;;;;;;5078458;28;20098;-70
2024/03/23 10:58:30;;;;;;;1.40;0.17;;;11.00;99.90;;;;;;5065275;28;20081;-70
2024/03/23 11:00:55;;;;;;;1.10;0.10;;;10.30;99.90;;;;;;5064469;28;20034;-69
2024/03/23 11:03:36;;;;;;;1.27;0.20;;;9.30;99.90;;;;;;5060370;28;20037;-66
2024/03/23 11:06:05;;;;;;;2.25;0.20;;;8.50;99.90;;;;;;5065174;28;20040;-67
2024/03/23 11:08:39;;;;;;;0.22;0.10;;;7.70;99.90;;;;;;5068214;28;20036;-67
2024/03/23 11:11:17;;;;;;;0.70;0.30;;;7.30;99.90;;;;;;5083217;28;20039;-66
2024/03/23 11:13:42;;;;;;;0.10;0.00;;;6.90;99.90;;;;;;5078439;28;20040;-67
2024/03/23 11:16:29;;;;;;;0.95;0.47;;;6.60;99.90;;;;;;5081073;28;20496;-67
2024/03/23 11:19:34;;;;;;;0.32;0.15;;;6.40;99.90;;;;;;5067249;28;20482;-68
2024/03/23 11:22:01;;;;;;;1.25;0.43;;;6.30;99.90;;;;;;5065890;28;20422;-67
2024/03/23 11:24:26;;;;;;;3.78;0.60;;;6.30;99.90;;;;;;5063719;28;20040;-68
2024/03/23 11:26:52;;;;;;;0.70;0.45;;;6.40;99.90;;;;;;5057033;28;20605;-67
2024/03/23 11:29:18;;;;;;;0.77;0.40;;;6.40;99.90;;;;;;5078768;28;20040;-68
2024/03/23 11:31:48;;;;;;;0.30;0.10;;;6.30;99.90;;;;;;5045074;28;20440;-68
2024/03/23 11:34:16;;;;;;;1.33;0.20;;;6.40;99.90;;;;;;5063619;28;20070;-68
2024/03/23 11:36:42;;;;;;;0.03;0.03;;;6.50;99.90;;;;;;5070461;28;20036;-68
2024/03/23 11:39:16;;;;;;;1.75;0.40;;;6.50;99.90;;;;;;5068342;28;20046;-69
2024/03/23 11:42:00;;;;;;;0.03;0.03;;;6.50;99.90;;;;;;5059238;28;20124;-68
2024/03/23 11:44:27;;;;;;;2.40;0.43;;;6.80;99.90;;;;;;5065470;28;20518;-68
2024/03/23 11:46:53;;;;;;;0.98;0.28;;;7.90;99.90;;;;;;5070112;28;20070;-69
2024/03/23 11:49:29;;;;;;;5.57;0.30;;;9.20;99.90;;;;;;5080077;28;20356;-69
2024/03/23 11:51:56;;;;;;;1.38;0.43;;;10.50;99.90;;;;;;5070957;28;20352;-69
2024/03/23 11:54:26;;;;;;;0.17;0.17;;;11.40;99.90;;;;;;5048932;28;20464;-69
2024/03/23 11:57:04;;;;;;;0.77;0.28;;;11.90;99.90;;;;;;5055085;28;20051;-70
2024/03/23 11:59:34;;;;;;;1.08;0.30;;;12.40;99.90;;;;;;5060539;28;20040;-70
2024/03/23 12:02:01;;;;;;;0.25;0.10;;;12.50;99.90;;;;;;5058869;28;20036;-70
2024/03/23 12:04:30;;;;;;;0.13;0.10;;;12.80;99.90;;;;;;5046152;28;20241;-70
2024/03/23 12:07:21;;;;;;;3.85;0.50;;;13.20;99.90;;;;;;5065947;28;20101;-69
2024/03/23 12:10:03;;;;;;;0.43;0.10;;;13.60;99.90;;;;;;5081822;28;20047;-70
2024/03/23 12:12:29;;;;;;;3.00;0.43;;;13.30;99.90;;;;;;5060880;28;20444;-70
2024/03/23 12:15:07;;;;;;;0.35;0.35;;;12.40;99.90;;;;;;5068171;28;20040;-70
2024/03/23 12:17:34;;;;;;;1.00;0.38;;;11.40;99.90;;;;;;5065965;28;20039;-70
2024/03/23 12:20:00;;;;;;;0.47;0.20;;;10.70;99.90;;;;;;5063760;28;20064;-70
2024/03/23 12:22:26;;;;;;;0.50;0.20;;;10.10;99.90;;;;;;5064540;28;20032;-70
2024/03/23 12:24:53;;;;;;;1.05;0.47;;;9.50;99.90;;;;;;5065654;28;20041;-70
2024/03/23 12:27:18;;;;;;;1.83;0.30;;;9.10;99.90;;;;;;5058467;28;20115;-70
2024/03/23 12:29:46;;;;;;;0.25;0.10;;;9.70;99.90;;;;;;5083962;28;20068;-69
2024/03/23 12:32:13;;;;;;;1.80;0.55;;;11.00;99.90;;;;;;5051072;28;20040;-70
2024/03/23 12:34:39;;;;;;;1.65;0.55;;;11.60;99.90;;;;;;5068665;28;20040;-70
2024/03/23 12:37:08;;;;;;;0.63;0.10;;;11.10;99.90;;;;;;5084666;28;20039;-70
2024/03/23 12:39:35;;;;;;;0.98;0.10;;;10.70;99.90;;;;;;5065813;28;20032;-70
2024/03/23 12:42:02;;;;;;;2.38;0.40;;;11.20;99.90;;;;;;5044802;28;20358;-70
2024/03/23 12:44:28;;;;;;;1.75;0.32;;;11.30;99.90;;;;;;5064229;28;20040;-70
2024/03/23 12:46:54;;;;;;;0.00;0.00;;;11.00;99.90;;;;;;5072255;28;20083;-70
2024/03/23 12:49:20;;;;;;;5.68;0.52;;;10.40;99.90;;;;;;5065118;28;20361;-70
2024/03/23 12:51:56;;;;;;;5.93;0.35;;;9.90;99.90;;;;;;5061849;28;20042;-70
2024/03/23 12:54:22;;;;;;;0.75;0.32;;;9.50;99.90;;;;;;5069940;28;20108;-69